Terminal Aerodrome Forecast
Issued by NWS

Current Version | Previous Version | Graphics & Text | Print | Product List | Glossary On
Versions: 1 2 3 4 5 6 7 8 9 10 11 12 13 14 15 16 17 18 19
000
FTUS41 KILN 281100
TAFLUK
TAF
KLUK 281139Z 2812/0112 05003KT P6SM BKN100
     FM281800 08006KT P6SM SCT025 BKN060
     FM010300 00000KT 3SM -SN BKN025 OVC050
     FM010600 00000KT 1SM -SN OVC012
      TEMPO 0106/0109 1/2SM SN OVC008
     FM010900 00000KT 2SM -SNPL OVC008=

USA.gov is the U.S. government's official web portal to all federal, state and local government web resources and services.